Time;durP1;ratioP1;P1;durP2;ratioP2;P2;SDS_P1;SDS_P2;PMS_P1;PMS_P2;Temp;Humidity;BMP_temperature;BMP_pressure;BME280_temperature;BME280_humidity;BME280_pressure;Samples;Min_cycle;Max_cycle;Signal;HPM_P1;HPM_P2
2021/08/30 00:00:17;;;;;;;4.97;4.57;;;20.60;69.40;;;;;;5029702;28;20190;-49
2021/08/30 00:02:42;;;;;;;5.00;4.60;;;20.60;69.50;;;;;;5022414;28;20267;-48
2021/08/30 00:05:09;;;;;;;5.93;5.43;;;20.70;69.20;;;;;;5022049;28;20204;-46
2021/08/30 00:07:34;;;;;;;5.07;4.67;;;20.60;69.10;;;;;;5025849;28;20268;-48
2021/08/30 00:10:00;;;;;;;5.23;4.80;;;20.60;69.50;;;;;;5029847;28;20527;-48
2021/08/30 00:12:26;;;;;;;5.57;5.07;;;20.60;69.30;;;;;;5026055;28;20209;-45
2021/08/30 00:14:52;;;;;;;5.80;5.30;;;20.40;69.70;;;;;;5021506;28;20193;-45
2021/08/30 00:17:19;;;;;;;6.70;6.10;;;20.50;70.00;;;;;;5029099;28;20196;-47
2021/08/30 00:19:45;;;;;;;6.57;5.97;;;20.50;69.60;;;;;;5046535;28;20444;-46
2021/08/30 00:22:10;;;;;;;7.13;6.00;;;20.60;69.80;;;;;;5016126;28;20538;-44
2021/08/30 00:24:36;;;;;;;8.43;6.90;;;20.60;69.60;;;;;;5028045;28;20274;-48
2021/08/30 00:27:02;;;;;;;4.70;4.30;;;20.60;69.50;;;;;;5024346;28;20193;-49
2021/08/30 00:29:27;;;;;;;3.63;3.33;;;20.50;69.70;;;;;;5027776;28;20193;-49
2021/08/30 00:31:57;;;;;;;6.70;6.10;;;20.60;69.70;;;;;;5021475;28;20201;-48
2021/08/30 00:34:24;;;;;;;4.80;4.40;;;20.80;69.50;;;;;;5019886;28;20719;-47
2021/08/30 00:36:50;;;;;;;7.70;7.00;;;20.80;69.10;;;;;;5038458;28;20443;-49
2021/08/30 00:39:20;;;;;;;8.13;7.33;;;20.90;68.50;;;;;;5020020;28;20447;-48
2021/08/30 00:41:47;;;;;;;4.70;4.30;;;20.90;68.30;;;;;;5016867;28;20538;-49
2021/08/30 00:44:13;;;;;;;8.00;7.30;;;20.90;68.30;;;;;;5016172;28;20549;-48
2021/08/30 00:46:38;;;;;;;7.83;7.13;;;20.80;68.40;;;;;;5033694;28;20561;-46
2021/08/30 00:49:04;;;;;;;8.20;7.50;;;20.80;68.30;;;;;;5035301;28;20196;-49
2021/08/30 00:51:30;;;;;;;7.30;6.70;;;20.90;68.30;;;;;;5023506;28;20194;-48
2021/08/30 00:53:58;;;;;;;5.07;4.67;;;20.80;68.50;;;;;;5022843;28;20556;-48
2021/08/30 00:56:26;;;;;;;7.30;6.70;;;20.70;69.20;;;;;;5023054;28;20194;-48
2021/08/30 00:58:51;;;;;;;9.50;8.60;;;20.70;69.20;;;;;;5019932;28;20464;-45
2021/08/30 01:01:17;;;;;;;9.27;8.47;;;20.60;69.10;;;;;;5015087;28;20975;-48
2021/08/30 01:03:43;;;;;;;6.67;6.17;;;20.50;69.50;;;;;;5027164;28;20208;-49
2021/08/30 01:06:22;;;;;;;9.63;8.73;;;20.50;70.30;;;;;;5018070;28;20201;-46
2021/08/30 01:09:01;;;;;;;7.10;6.50;;;20.40;69.70;;;;;;5023434;28;20676;-46
2021/08/30 01:11:32;;;;;;;8.60;7.90;;;20.50;70.00;;;;;;5027930;28;20478;-48
2021/08/30 01:14:05;;;;;;;10.47;9.50;;;20.40;70.00;;;;;;5016242;28;20793;-46
2021/08/30 01:16:32;;;;;;;7.53;6.87;;;20.30;70.30;;;;;;5016147;28;20440;-48
2021/08/30 01:18:59;;;;;;;10.13;9.23;;;20.20;70.70;;;;;;5029498;28;20470;-44
2021/08/30 01:21:37;;;;;;;9.87;9.07;;;20.20;70.60;;;;;;5025259;28;20526;-45
2021/08/30 01:24:07;;;;;;;9.90;9.10;;;20.10;70.70;;;;;;5032529;28;20447;-45
2021/08/30 01:26:45;;;;;;;9.27;8.47;;;20.10;70.90;;;;;;5027690;28;20459;-44
2021/08/30 01:29:34;;;;;;;8.43;7.67;;;20.10;71.20;;;;;;5022078;28;20454;-45
2021/08/30 01:32:18;;;;;;;8.27;7.57;;;20.00;71.40;;;;;;5019339;28;20451;-48
2021/08/30 01:34:45;;;;;;;9.17;8.30;;;20.00;71.80;;;;;;5027171;28;20854;-46
2021/08/30 01:37:11;;;;;;;9.70;8.70;;;20.10;71.50;;;;;;5023134;28;20433;-46
2021/08/30 01:39:38;;;;;;;9.90;9.00;;;20.10;71.00;;;;;;5025352;28;20499;-48
2021/08/30 01:42:05;;;;;;;14.17;8.57;;;20.00;71.90;;;;;;5019969;28;20351;-48
2021/08/30 01:44:31;;;;;;;9.23;8.33;;;20.00;71.50;;;;;;5034429;28;20471;-45
2021/08/30 01:46:57;;;;;;;9.83;8.97;;;20.00;71.90;;;;;;5020213;28;20440;-44
2021/08/30 01:49:25;;;;;;;6.97;6.40;;;19.90;71.70;;;;;;5026331;28;20452;-45
2021/08/30 01:51:52;;;;;;;9.93;9.03;;;19.80;71.90;;;;;;5021899;28;20468;-45
2021/08/30 01:54:19;;;;;;;9.33;8.53;;;19.80;71.90;;;;;;5015562;28;20493;-45
2021/08/30 01:56:49;;;;;;;9.90;8.90;;;19.80;72.20;;;;;;5017772;28;20461;-45
2021/08/30 02:02:11;;;;;;;9.50;8.70;;;20.00;72.00;;;;;;5016537;28;20484;-47
2021/08/30 02:04:38;;;;;;;7.83;7.13;;;20.00;71.10;;;;;;5013899;28;20448;-45
2021/08/30 02:07:05;;;;;;;8.43;7.60;;;19.90;71.40;;;;;;5024232;28;20485;-45
2021/08/30 02:09:31;;;;;;;8.97;8.17;;;20.00;71.80;;;;;;5019281;28;20829;-45
2021/08/30 02:11:57;;;;;;;7.83;7.13;;;19.90;71.70;;;;;;5020397;28;20452;-45
2021/08/30 02:14:22;;;;;;;8.70;7.90;;;20.00;71.80;;;;;;5011131;28;20806;-46
2021/08/30 02:16:55;;;;;;;8.60;7.80;;;20.00;71.30;;;;;;5020050;28;20641;-45
2021/08/30 02:19:39;;;;;;;9.43;8.60;;;20.10;71.20;;;;;;5040329;28;20315;-46
2021/08/30 02:22:12;;;;;;;8.77;7.17;;;20.00;71.30;;;;;;5030867;28;20567;-48
2021/08/30 02:24:54;;;;;;;6.50;5.90;;;19.80;71.80;;;;;;5023838;28;20456;-45
2021/08/30 02:27:56;;;;;;;8.33;7.63;;;19.80;72.20;;;;;;5024363;28;20465;-48
2021/08/30 02:30:33;;;;;;;10.23;7.37;;;19.80;72.10;;;;;;5019726;28;20478;-45
2021/08/30 02:33:05;;;;;;;8.47;7.67;;;19.70;72.50;;;;;;5029235;28;20446;-45
2021/08/30 02:35:33;;;;;;;8.40;7.60;;;19.70;72.80;;;;;;5029279;28;20452;-45
2021/08/30 02:38:01;;;;;;;8.30;7.50;;;19.70;72.70;;;;;;5020296;28;20441;-48
2021/08/30 02:40:28;;;;;;;8.67;7.77;;;19.50;73.30;;;;;;5027494;28;20461;-49
2021/08/30 02:42:57;;;;;;;8.93;8.10;;;19.50;73.40;;;;;;5024182;28;20490;-48
2021/08/30 02:45:24;;;;;;;8.53;7.73;;;19.50;73.90;;;;;;5019865;28;20451;-45
2021/08/30 02:47:50;;;;;;;8.70;8.00;;;19.30;74.00;;;;;;5032307;28;20448;-49
2021/08/30 02:50:16;;;;;;;7.00;6.40;;;19.30;74.50;;;;;;5035035;28;20951;-46
2021/08/30 02:52:45;;;;;;;6.90;6.20;;;19.50;74.30;;;;;;5024676;28;20451;-45
2021/08/30 02:55:11;;;;;;;6.90;6.30;;;19.50;74.00;;;;;;5030700;28;20970;-46
2021/08/30 02:57:38;;;;;;;7.03;6.33;;;19.40;74.00;;;;;;5031577;28;20443;-45
2021/08/30 03:00:05;;;;;;;7.00;6.30;;;19.50;73.80;;;;;;5018979;28;20447;-46
2021/08/30 03:02:31;;;;;;;6.83;6.23;;;19.50;73.70;;;;;;5022366;28;20804;-45
2021/08/30 03:04:58;;;;;;;6.90;6.30;;;19.20;74.80;;;;;;5021301;28;20445;-49
2021/08/30 03:07:27;;;;;;;6.63;6.10;;;19.20;75.40;;;;;;5043991;28;20235;-47
2021/08/30 03:09:53;;;;;;;5.97;5.37;;;19.40;74.50;;;;;;5024530;28;20452;-45
2021/08/30 03:12:20;;;;;;;5.93;5.40;;;19.20;74.90;;;;;;5026455;28;20458;-45
2021/08/30 03:14:47;;;;;;;6.03;5.53;;;19.00;75.90;;;;;;5025848;28;20193;-49
2021/08/30 03:17:14;;;;;;;5.83;5.33;;;18.90;76.50;;;;;;5018097;28;20449;-48
2021/08/30 03:19:44;;;;;;;6.10;5.43;;;19.00;76.40;;;;;;5032755;28;20455;-49
2021/08/30 03:22:11;;;;;;;6.50;6.00;;;18.70;76.60;;;;;;5032251;28;20494;-48
2021/08/30 03:24:40;;;;;;;6.30;5.70;;;18.80;78.00;;;;;;5025421;28;20450;-48
2021/08/30 03:27:11;;;;;;;6.80;6.20;;;18.80;76.80;;;;;;5020257;28;20444;-46
2021/08/30 03:29:41;;;;;;;6.50;5.90;;;18.70;77.00;;;;;;5024237;28;20457;-50
2021/08/30 03:32:09;;;;;;;6.10;5.50;;;18.80;77.30;;;;;;5036362;28;20419;-49
2021/08/30 03:34:36;;;;;;;6.77;6.03;;;18.80;77.20;;;;;;5031592;28;20481;-47
2021/08/30 03:37:02;;;;;;;6.50;5.90;;;18.90;76.90;;;;;;5023052;28;20456;-49
2021/08/30 03:39:28;;;;;;;6.23;5.70;;;18.80;77.10;;;;;;5015862;28;20444;-46
2021/08/30 03:41:56;;;;;;;6.00;5.50;;;18.70;77.10;;;;;;5020422;28;20547;-49
2021/08/30 03:44:24;;;;;;;6.40;5.80;;;18.80;77.20;;;;;;5039335;28;20484;-45
2021/08/30 03:46:52;;;;;;;6.60;6.00;;;19.00;76.60;;;;;;5022336;28;20459;-47
2021/08/30 03:49:19;;;;;;;7.17;6.57;;;19.10;75.90;;;;;;5024484;28;20441;-49
2021/08/30 03:51:44;;;;;;;6.97;6.37;;;19.20;75.80;;;;;;5015402;28;21589;-46
2021/08/30 03:54:10;;;;;;;7.43;6.73;;;19.30;75.50;;;;;;5031175;28;20447;-48
2021/08/30 03:56:37;;;;;;;7.40;6.80;;;19.30;75.30;;;;;;5019489;28;20223;-49
2021/08/30 03:59:04;;;;;;;7.87;7.10;;;19.30;75.80;;;;;;5017680;28;20200;-45
2021/08/30 04:01:31;;;;;;;8.80;8.00;;;19.30;75.10;;;;;;5013818;28;20499;-48
2021/08/30 04:04:01;;;;;;;8.80;8.03;;;19.00;75.80;;;;;;5025275;28;21279;-45
2021/08/30 04:06:31;;;;;;;9.67;8.87;;;19.10;76.40;;;;;;5023690;28;20449;-45
2021/08/30 04:08:58;;;;;;;8.60;7.80;;;18.90;76.90;;;;;;5022439;28;20452;-48
2021/08/30 04:11:25;;;;;;;9.77;8.87;;;18.90;77.20;;;;;;5025178;28;20460;-46
2021/08/30 04:13:52;;;;;;;9.17;8.37;;;19.00;76.90;;;;;;5028714;28;20514;-47
2021/08/30 04:16:18;;;;;;;10.10;7.90;;;19.10;76.20;;;;;;5019425;28;20440;-47
2021/08/30 04:18:43;;;;;;;9.10;8.30;;;19.30;75.80;;;;;;5025199;28;21055;-45
2021/08/30 04:21:09;;;;;;;8.87;8.07;;;19.40;75.50;;;;;;5016356;28;20204;-44
2021/08/30 04:23:34;;;;;;;9.37;8.57;;;19.40;75.00;;;;;;5037286;28;20228;-48
2021/08/30 04:26:00;;;;;;;8.90;8.10;;;19.40;75.30;;;;;;5018052;28;20190;-45
2021/08/30 04:28:25;;;;;;;10.00;9.00;;;19.30;75.50;;;;;;5044508;28;20208;-45
2021/08/30 04:30:53;;;;;;;10.00;9.00;;;19.30;75.50;;;;;;5022648;28;22004;-44
2021/08/30 04:33:20;;;;;;;9.27;8.40;;;19.30;75.50;;;;;;5032709;28;20202;-44
2021/08/30 04:35:46;;;;;;;10.00;9.03;;;19.20;75.90;;;;;;5018290;28;20974;-45
2021/08/30 04:38:13;;;;;;;9.90;9.00;;;19.20;76.10;;;;;;5014430;28;20523;-45
2021/08/30 04:40:39;;;;;;;9.80;8.90;;;19.10;76.30;;;;;;5020644;28;20291;-46
2021/08/30 04:43:07;;;;;;;12.13;9.93;;;19.10;76.60;;;;;;5020360;28;20495;-45
2021/08/30 04:45:33;;;;;;;9.47;8.63;;;19.10;76.80;;;;;;5018159;28;20451;-46
2021/08/30 04:47:59;;;;;;;10.53;9.40;;;19.10;77.70;;;;;;5028799;28;20447;-47
2021/08/30 04:50:24;;;;;;;10.90;9.80;;;19.10;76.70;;;;;;5016918;28;20204;-47
2021/08/30 04:52:50;;;;;;;10.87;9.73;;;19.00;77.10;;;;;;5018753;28;20194;-45
2021/08/30 04:55:15;;;;;;;10.23;9.23;;;19.20;76.70;;;;;;5019327;28;20660;-45
2021/08/30 04:57:41;;;;;;;9.80;8.90;;;19.30;76.50;;;;;;5027582;28;20216;-45
2021/08/30 05:00:08;;;;;;;9.60;8.70;;;19.30;76.40;;;;;;5029474;28;20600;-47
2021/08/30 05:02:33;;;;;;;9.87;8.87;;;19.20;76.80;;;;;;5021991;28;21775;-48
2021/08/30 05:04:59;;;;;;;10.17;9.20;;;19.30;76.90;;;;;;5025106;28;20455;-45
2021/08/30 05:07:25;;;;;;;13.40;8.60;;;19.40;76.40;;;;;;5018955;28;20196;-45
2021/08/30 05:09:50;;;;;;;8.63;7.80;;;19.30;76.20;;;;;;5017507;28;20201;-44
2021/08/30 05:12:16;;;;;;;8.73;7.93;;;19.50;76.10;;;;;;5025785;28;20201;-49
2021/08/30 05:14:42;;;;;;;8.57;7.77;;;19.40;76.10;;;;;;5025206;28;20193;-45
2021/08/30 05:17:07;;;;;;;12.80;9.07;;;19.50;75.90;;;;;;5025296;28;20196;-45
2021/08/30 05:19:33;;;;;;;9.50;8.50;;;19.60;75.60;;;;;;5036773;28;20237;-44
2021/08/30 05:21:58;;;;;;;9.30;8.40;;;19.40;76.00;;;;;;5021728;28;20226;-46
2021/08/30 05:24:24;;;;;;;9.50;8.50;;;19.40;76.40;;;;;;5017810;28;20285;-47
2021/08/30 05:26:50;;;;;;;9.27;8.20;;;19.50;76.20;;;;;;5023218;28;20596;-46
2021/08/30 05:29:15;;;;;;;9.10;8.10;;;19.50;76.10;;;;;;5018769;28;20185;-45
2021/08/30 05:31:42;;;;;;;9.90;8.30;;;19.40;76.10;;;;;;5015550;28;20194;-45
2021/08/30 05:34:08;;;;;;;10.00;9.00;;;19.50;75.80;;;;;;5016344;28;20224;-45
2021/08/30 05:36:34;;;;;;;9.07;8.27;;;19.50;75.90;;;;;;5023124;28;20443;-45
2021/08/30 05:38:59;;;;;;;9.23;8.43;;;19.50;75.90;;;;;;5013560;28;20217;-45
2021/08/30 05:41:25;;;;;;;12.43;9.60;;;19.50;76.00;;;;;;5019528;28;20190;-47
2021/08/30 05:43:50;;;;;;;9.87;8.87;;;19.50;76.10;;;;;;5028110;28;20260;-49
2021/08/30 05:46:16;;;;;;;10.87;9.73;;;19.40;76.20;;;;;;5036836;28;20637;-45
2021/08/30 05:48:47;;;;;;;9.07;8.27;;;19.40;76.30;;;;;;5025287;28;20193;-46
2021/08/30 05:51:13;;;;;;;10.40;9.30;;;19.40;76.50;;;;;;5021111;28;20616;-45
2021/08/30 05:53:40;;;;;;;10.67;9.67;;;19.40;76.40;;;;;;5018567;28;20429;-45
2021/08/30 05:56:07;;;;;;;9.83;8.87;;;19.40;76.30;;;;;;5014882;28;20349;-45
2021/08/30 05:58:34;;;;;;;9.80;8.80;;;19.20;77.20;;;;;;5022587;28;20455;-45
2021/08/30 06:00:59;;;;;;;10.00;9.10;;;19.30;77.00;;;;;;5026665;28;20430;-50
2021/08/30 06:03:25;;;;;;;10.20;9.23;;;19.30;76.90;;;;;;5022230;28;20480;-48
2021/08/30 06:05:50;;;;;;;10.10;9.07;;;19.30;76.80;;;;;;5017476;28;20223;-47
2021/08/30 06:08:17;;;;;;;12.13;9.50;;;19.50;76.30;;;;;;5020446;28;20256;-48
2021/08/30 06:10:43;;;;;;;10.67;9.67;;;19.60;76.00;;;;;;5027348;28;20667;-49
2021/08/30 06:13:09;;;;;;;11.40;10.30;;;19.60;75.80;;;;;;5013737;28;20429;-48
2021/08/30 06:15:34;;;;;;;11.80;9.90;;;19.50;76.40;;;;;;5019314;28;20197;-48
2021/08/30 06:18:00;;;;;;;11.20;9.73;;;19.50;76.80;;;;;;5022702;28;20294;-50
2021/08/30 06:20:26;;;;;;;10.30;9.30;;;19.30;77.10;;;;;;5035172;28;20446;-49
2021/08/30 06:22:51;;;;;;;10.97;9.93;;;19.40;77.20;;;;;;5029855;28;20224;-48
2021/08/30 06:25:17;;;;;;;10.20;8.73;;;19.60;76.50;;;;;;5028440;28;20196;-46
2021/08/30 06:27:43;;;;;;;10.30;9.30;;;19.60;76.20;;;;;;5028448;28;20185;-50
2021/08/30 06:30:09;;;;;;;10.93;9.83;;;19.70;76.00;;;;;;5025574;28;20223;-49
2021/08/30 06:32:35;;;;;;;11.10;10.00;;;19.80;75.60;;;;;;5024160;28;20185;-45
2021/08/30 06:35:00;;;;;;;9.97;9.10;;;20.00;75.40;;;;;;5033999;28;20434;-46
2021/08/30 06:37:26;;;;;;;10.40;9.17;;;20.00;75.00;;;;;;5037963;28;20190;-50
2021/08/30 06:39:51;;;;;;;11.00;10.00;;;20.00;74.90;;;;;;5031439;28;20652;-50
2021/08/30 06:42:17;;;;;;;10.40;9.30;;;20.10;74.70;;;;;;5029278;28;20229;-46
2021/08/30 06:44:43;;;;;;;11.27;9.57;;;20.20;74.40;;;;;;5027854;28;20209;-46
2021/08/30 06:47:08;;;;;;;10.60;9.60;;;20.00;74.60;;;;;;5018648;28;20205;-48
2021/08/30 06:49:34;;;;;;;10.93;9.93;;;19.90;75.10;;;;;;5025165;28;20297;-49
2021/08/30 06:51:59;;;;;;;11.23;9.77;;;19.90;75.10;;;;;;5030070;28;20186;-49
2021/08/30 06:54:25;;;;;;;9.77;8.77;;;19.80;75.30;;;;;;5030326;28;20193;-50
2021/08/30 06:56:51;;;;;;;9.60;8.70;;;19.80;75.60;;;;;;5020273;28;20276;-47
2021/08/30 06:59:16;;;;;;;10.97;9.80;;;19.80;76.10;;;;;;5027838;28;20259;-45
2021/08/30 07:01:42;;;;;;;10.93;8.13;;;19.80;76.50;;;;;;5014900;28;20198;-49
2021/08/30 07:04:07;;;;;;;9.60;8.63;;;19.90;76.60;;;;;;5027822;28;20596;-50
2021/08/30 07:06:33;;;;;;;9.47;8.67;;;20.00;76.20;;;;;;5032320;28;20641;-46
2021/08/30 07:09:02;;;;;;;9.50;8.70;;;20.20;75.70;;;;;;5046991;28;20194;-47
2021/08/30 07:11:28;;;;;;;9.97;9.07;;;20.20;75.50;;;;;;5032635;28;20450;-46
2021/08/30 07:13:53;;;;;;;9.67;8.70;;;20.20;75.60;;;;;;5024168;28;20965;-47
2021/08/30 07:16:19;;;;;;;10.43;9.37;;;20.00;75.80;;;;;;5022565;28;20467;-49
2021/08/30 07:18:45;;;;;;;10.47;8.67;;;20.00;75.50;;;;;;5020440;28;20239;-49
2021/08/30 07:21:10;;;;;;;9.43;7.80;;;20.10;75.60;;;;;;5034143;28;20649;-45
2021/08/30 07:23:37;;;;;;;8.90;8.00;;;20.00;75.90;;;;;;5026593;28;20213;-46
2021/08/30 07:26:03;;;;;;;10.80;9.27;;;20.10;75.40;;;;;;5016976;28;20613;-46
2021/08/30 07:28:29;;;;;;;10.40;9.50;;;20.20;75.30;;;;;;5036925;28;20473;-45
2021/08/30 07:30:55;;;;;;;9.93;8.97;;;20.20;74.90;;;;;;5020403;28;20755;-47
2021/08/30 07:33:20;;;;;;;9.03;7.93;;;20.00;74.70;;;;;;5019640;28;20204;-50
2021/08/30 07:35:46;;;;;;;8.87;8.07;;;19.90;75.40;;;;;;5023261;28;20654;-46
2021/08/30 07:38:11;;;;;;;9.03;7.83;;;20.10;75.10;;;;;;5027238;28;20242;-47
2021/08/30 07:40:37;;;;;;;9.33;8.43;;;20.20;75.00;;;;;;5025565;28;20205;-47
2021/08/30 07:43:03;;;;;;;12.20;9.30;;;20.20;74.90;;;;;;5028592;28;20232;-48
2021/08/30 07:45:29;;;;;;;10.43;9.43;;;20.10;74.90;;;;;;5036936;28;20258;-46
2021/08/30 07:47:54;;;;;;;8.67;7.83;;;20.20;74.90;;;;;;5020243;28;20194;-48
2021/08/30 07:50:21;;;;;;;8.53;7.70;;;20.30;74.70;;;;;;5023574;28;20285;-50
2021/08/30 07:52:46;;;;;;;8.17;7.47;;;20.30;75.00;;;;;;5029280;28;20193;-46
2021/08/30 07:55:12;;;;;;;10.57;7.37;;;20.20;75.10;;;;;;5023020;28;20451;-46
2021/08/30 07:57:38;;;;;;;8.27;7.57;;;20.10;75.10;;;;;;5016866;28;20197;-45
2021/08/30 08:00:04;;;;;;;8.30;7.50;;;20.10;75.30;;;;;;5018217;28;20437;-48
2021/08/30 08:02:30;;;;;;;9.13;8.23;;;20.00;75.10;;;;;;5022162;28;20264;-45
2021/08/30 08:04:56;;;;;;;8.80;8.00;;;20.00;75.40;;;;;;5026710;28;20432;-46
2021/08/30 08:07:22;;;;;;;8.43;7.70;;;20.00;75.40;;;;;;5030147;28;20193;-45
2021/08/30 08:09:47;;;;;;;8.27;7.57;;;20.00;75.80;;;;;;5024494;28;20684;-50
2021/08/30 08:12:13;;;;;;;8.07;7.27;;;19.90;75.90;;;;;;5023310;28;20268;-46
2021/08/30 08:14:39;;;;;;;8.80;7.87;;;20.00;76.20;;;;;;5021473;28;20637;-47
2021/08/30 08:17:05;;;;;;;7.80;7.10;;;19.90;76.30;;;;;;5022688;28;20205;-46
2021/08/30 08:19:31;;;;;;;8.13;7.33;;;19.80;76.60;;;;;;5046275;28;20481;-45
2021/08/30 08:21:57;;;;;;;7.27;6.57;;;20.00;76.50;;;;;;5042162;28;20491;-48
2021/08/30 08:24:24;;;;;;;6.83;6.23;;;19.90;76.70;;;;;;5022953;28;20198;-49
2021/08/30 08:26:50;;;;;;;8.73;6.70;;;19.90;76.70;;;;;;5030559;28;20199;-46
2021/08/30 08:29:16;;;;;;;7.17;6.57;;;19.90;77.10;;;;;;5023738;28;20961;-47
2021/08/30 08:31:42;;;;;;;9.03;6.67;;;20.00;76.90;;;;;;5030989;28;20471;-47
2021/08/30 08:34:07;;;;;;;6.93;6.33;;;20.20;76.30;;;;;;5020184;28;20190;-46
2021/08/30 08:36:33;;;;;;;6.50;6.00;;;20.20;75.70;;;;;;5030050;28;20232;-45
2021/08/30 08:38:59;;;;;;;6.90;6.30;;;20.30;75.40;;;;;;5019567;28;20224;-46
2021/08/30 08:41:24;;;;;;;6.30;5.53;;;20.20;75.10;;;;;;5019592;28;20260;-49
2021/08/30 08:43:56;;;;;;;8.43;6.40;;;20.20;75.10;;;;;;5020667;28;20228;-48
2021/08/30 08:46:23;;;;;;;5.43;4.93;;;20.20;75.60;;;;;;5024525;28;20228;-47
2021/08/30 08:48:48;;;;;;;5.07;4.67;;;20.10;75.40;;;;;;5029429;28;20448;-49
2021/08/30 08:51:15;;;;;;;6.10;5.60;;;20.00;75.90;;;;;;5027275;28;20432;-50
2021/08/30 08:53:45;;;;;;;5.70;5.20;;;20.00;76.70;;;;;;5025596;28;20249;-49
2021/08/30 08:56:19;;;;;;;6.27;5.67;;;20.10;76.70;;;;;;5031628;28;20441;-50
2021/08/30 08:58:45;;;;;;;8.13;6.00;;;19.90;76.10;;;;;;5035434;28;20473;-50
2021/08/30 09:01:11;;;;;;;6.23;5.63;;;20.00;76.90;;;;;;5039721;28;20432;-49
2021/08/30 09:03:48;;;;;;;7.53;6.83;;;20.00;76.90;;;;;;5025749;28;20220;-51
2021/08/30 09:06:27;;;;;;;7.27;6.67;;;20.10;76.80;;;;;;5019815;28;21300;-49
2021/08/30 09:09:16;;;;;;;7.10;6.00;;;20.20;76.70;;;;;;5023147;28;20841;-51
2021/08/30 09:11:53;;;;;;;7.43;6.70;;;20.40;76.40;;;;;;5028943;28;20511;-49
2021/08/30 09:14:24;;;;;;;7.03;6.43;;;20.50;76.30;;;;;;5015243;28;20447;-46
2021/08/30 09:17:05;;;;;;;8.07;6.37;;;20.40;75.90;;;;;;5027330;28;20856;-50
2021/08/30 09:19:31;;;;;;;7.77;7.07;;;20.50;75.60;;;;;;5020842;28;21002;-49
2021/08/30 09:21:57;;;;;;;8.57;7.77;;;20.40;76.10;;;;;;5030057;28;20498;-47
2021/08/30 09:24:24;;;;;;;8.70;7.73;;;20.40;76.30;;;;;;5020444;28;20815;-50
2021/08/30 09:26:53;;;;;;;8.17;7.37;;;20.50;76.10;;;;;;5021743;28;20193;-50
2021/08/30 09:29:25;;;;;;;9.40;8.50;;;20.50;76.70;;;;;;5026814;28;20446;-49
2021/08/30 09:32:01;;;;;;;8.70;7.80;;;20.60;76.70;;;;;;5020639;28;20519;-48
2021/08/30 09:34:38;;;;;;;9.00;7.93;;;20.90;77.00;;;;;;5023844;28;20447;-48
2021/08/30 09:37:06;;;;;;;8.20;7.40;;;20.90;75.80;;;;;;5025736;28;20440;-50
2021/08/30 09:39:33;;;;;;;9.63;8.80;;;21.00;76.60;;;;;;5024895;28;20425;-48
2021/08/30 09:42:00;;;;;;;9.50;8.53;;;21.20;75.90;;;;;;5019413;28;20479;-49
2021/08/30 09:44:28;;;;;;;7.80;7.00;;;21.30;73.90;;;;;;5020047;28;20537;-48
2021/08/30 09:46:54;;;;;;;7.93;6.57;;;21.30;73.20;;;;;;5023995;28;20570;-46
2021/08/30 09:49:27;;;;;;;8.27;7.47;;;21.30;72.80;;;;;;5014655;28;20451;-47
2021/08/30 09:51:53;;;;;;;8.10;7.30;;;21.40;72.30;;;;;;5026278;28;20501;-48
2021/08/30 09:54:20;;;;;;;8.50;7.40;;;21.60;71.70;;;;;;5019485;28;20455;-50
2021/08/30 09:56:48;;;;;;;7.43;6.70;;;21.30;70.90;;;;;;5017391;28;20186;-47
2021/08/30 09:59:15;;;;;;;8.00;7.30;;;21.10;72.30;;;;;;5030760;28;20428;-50
2021/08/30 10:01:42;;;;;;;10.43;8.03;;;21.00;72.90;;;;;;5020120;28;20527;-47
2021/08/30 10:04:10;;;;;;;8.73;7.90;;;21.10;73.50;;;;;;5025859;28;20970;-48
2021/08/30 10:06:37;;;;;;;8.90;8.00;;;21.10;74.40;;;;;;5027621;28;20444;-46
2021/08/30 10:09:12;;;;;;;8.30;7.60;;;21.20;74.70;;;;;;5020417;28;20430;-46
2021/08/30 10:11:38;;;;;;;8.63;7.77;;;21.30;74.80;;;;;;5016287;28;20443;-47
2021/08/30 10:14:13;;;;;;;9.50;8.57;;;21.50;74.50;;;;;;5021541;28;20429;-47
2021/08/30 10:16:41;;;;;;;9.47;8.57;;;21.60;73.80;;;;;;5022744;28;20771;-46
2021/08/30 10:19:07;;;;;;;9.10;8.30;;;21.70;72.60;;;;;;5024609;28;20539;-45
2021/08/30 10:21:42;;;;;;;8.70;7.80;;;21.50;72.60;;;;;;5024030;28;20439;-46
2021/08/30 10:24:15;;;;;;;9.50;8.50;;;21.60;72.50;;;;;;5020856;28;20227;-46
2021/08/30 10:26:43;;;;;;;8.33;7.50;;;21.70;73.10;;;;;;5025897;28;20813;-46
2021/08/30 10:29:13;;;;;;;8.80;7.80;;;21.70;73.10;;;;;;5018457;28;20442;-45
2021/08/30 10:31:49;;;;;;;8.90;8.00;;;21.70;73.30;;;;;;5029402;28;20448;-46
2021/08/30 10:34:27;;;;;;;9.10;8.20;;;21.50;74.10;;;;;;5016745;28;20490;-45
2021/08/30 10:36:55;;;;;;;9.23;8.33;;;21.60;74.40;;;;;;5026388;28;20451;-45
2021/08/30 10:39:21;;;;;;;19.60;11.23;;;21.50;73.40;;;;;;5021680;28;20440;-45
2021/08/30 10:41:49;;;;;;;11.13;7.80;;;21.60;72.80;;;;;;5028164;28;20447;-46
2021/08/30 10:44:22;;;;;;;9.43;8.20;;;21.90;72.10;;;;;;5030626;28;20436;-47
2021/08/30 10:46:54;;;;;;;9.83;7.83;;;22.10;71.50;;;;;;5031559;28;20444;-45
2021/08/30 10:49:31;;;;;;;9.73;8.10;;;22.10;70.80;;;;;;5038762;28;20445;-45
2021/08/30 10:52:05;;;;;;;7.93;7.13;;;22.20;70.40;;;;;;5027481;28;20438;-47
2021/08/30 10:54:30;;;;;;;10.10;7.43;;;22.30;70.20;;;;;;5025993;28;20793;-45
2021/08/30 10:56:59;;;;;;;9.90;7.40;;;22.40;69.50;;;;;;5030844;28;20437;-47
2021/08/30 10:59:28;;;;;;;8.00;7.20;;;22.40;69.30;;;;;;5021828;28;20232;-45
2021/08/30 11:01:58;;;;;;;8.07;7.33;;;22.40;69.60;;;;;;5024679;28;20433;-46
2021/08/30 11:04:35;;;;;;;7.43;6.30;;;22.40;69.50;;;;;;5038174;28;20447;-46
2021/08/30 11:07:02;;;;;;;11.23;8.00;;;22.60;69.80;;;;;;5023807;28;20554;-46
2021/08/30 11:09:28;;;;;;;9.33;8.20;;;22.70;69.70;;;;;;5043542;28;20437;-45
2021/08/30 11:11:55;;;;;;;7.40;6.70;;;22.90;69.40;;;;;;5035619;28;20439;-45
2021/08/30 11:14:21;;;;;;;7.30;6.70;;;23.00;69.10;;;;;;5027165;28;20486;-45
2021/08/30 11:16:57;;;;;;;7.50;6.87;;;23.10;68.70;;;;;;5034026;28;20463;-45
2021/08/30 11:19:25;;;;;;;7.83;6.10;;;23.20;68.20;;;;;;5029330;28;20487;-45
2021/08/30 11:21:54;;;;;;;7.03;6.43;;;23.10;68.00;;;;;;5022170;28;20482;-46
2021/08/30 11:24:20;;;;;;;7.17;6.47;;;23.20;67.50;;;;;;5027851;28;20458;-45
2021/08/30 11:26:46;;;;;;;9.97;6.87;;;23.20;67.20;;;;;;5032153;28;20441;-45
2021/08/30 11:29:11;;;;;;;7.13;6.37;;;23.20;66.80;;;;;;5029128;28;20611;-46
2021/08/30 11:31:40;;;;;;;7.47;6.77;;;23.20;66.60;;;;;;5029614;28;20774;-45
2021/08/30 11:34:20;;;;;;;8.70;7.80;;;23.30;66.40;;;;;;5020377;28;20202;-46
2021/08/30 11:36:48;;;;;;;7.30;6.70;;;23.30;66.50;;;;;;5025986;28;20493;-45
2021/08/30 11:39:16;;;;;;;8.80;8.00;;;23.30;66.60;;;;;;5031143;28;20829;-47
2021/08/30 11:41:49;;;;;;;7.60;7.00;;;23.30;66.80;;;;;;5028493;28;20981;-46
2021/08/30 11:44:15;;;;;;;8.43;7.73;;;23.20;67.40;;;;;;5019889;28;20635;-47
2021/08/30 11:46:42;;;;;;;9.40;8.57;;;22.90;67.10;;;;;;5027165;28;20535;-49
2021/08/30 11:49:09;;;;;;;8.97;8.17;;;22.80;68.40;;;;;;5016220;28;20283;-50
2021/08/30 11:51:43;;;;;;;8.70;7.90;;;22.70;69.10;;;;;;5026823;28;20455;-47
2021/08/30 11:54:11;;;;;;;10.50;8.77;;;22.60;69.00;;;;;;5030460;28;20474;-50
2021/08/30 11:56:36;;;;;;;9.07;8.17;;;22.30;69.50;;;;;;5031357;28;20424;-46
2021/08/30 11:59:02;;;;;;;13.73;8.60;;;22.20;70.60;;;;;;5023523;28;20533;-50
2021/08/30 12:01:37;;;;;;;9.33;8.30;;;22.30;70.90;;;;;;5026726;28;20622;-47
2021/08/30 12:04:14;;;;;;;8.83;7.93;;;22.40;70.90;;;;;;5017315;28;20232;-50
2021/08/30 12:06:47;;;;;;;8.83;7.80;;;22.50;70.70;;;;;;5042068;28;20790;-49
2021/08/30 12:09:12;;;;;;;9.00;7.60;;;22.50;70.30;;;;;;5026944;28;20443;-47
2021/08/30 12:11:49;;;;;;;9.60;8.37;;;22.60;70.00;;;;;;5029397;28;20432;-50
2021/08/30 12:14:14;;;;;;;9.63;8.70;;;22.80;69.80;;;;;;5017186;28;20190;-48
2021/08/30 12:16:43;;;;;;;8.70;7.90;;;22.70;69.40;;;;;;5029806;28;20510;-46
2021/08/30 12:19:10;;;;;;;9.03;8.13;;;22.50;69.80;;;;;;5024227;28;20300;-48
2021/08/30 12:21:37;;;;;;;9.90;8.90;;;22.30;69.70;;;;;;5027685;28;20438;-47
2021/08/30 12:24:05;;;;;;;9.90;8.20;;;22.40;70.30;;;;;;5044992;28;20481;-51
2021/08/30 12:26:30;;;;;;;9.07;8.17;;;22.20;69.80;;;;;;5022579;28;20471;-46
2021/08/30 12:28:59;;;;;;;7.93;7.27;;;22.30;70.20;;;;;;5035185;28;20865;-45
2021/08/30 12:31:32;;;;;;;8.77;8.03;;;22.30;69.30;;;;;;5030816;28;20265;-49
2021/08/30 12:34:04;;;;;;;8.17;7.47;;;22.30;68.60;;;;;;5037304;28;20451;-47
2021/08/30 12:36:30;;;;;;;9.03;8.23;;;22.30;69.00;;;;;;5031478;28;20969;-50
2021/08/30 12:38:56;;;;;;;9.87;8.97;;;22.40;69.50;;;;;;5031889;28;20439;-46
2021/08/30 12:41:22;;;;;;;8.90;8.10;;;22.40;68.70;;;;;;5030877;28;20197;-46
2021/08/30 12:43:48;;;;;;;8.33;7.53;;;22.40;69.20;;;;;;5027771;28;20231;-51
2021/08/30 12:46:15;;;;;;;8.40;7.60;;;22.30;69.70;;;;;;5033963;28;20204;-49
2021/08/30 12:48:40;;;;;;;8.23;7.53;;;22.40;69.40;;;;;;5039248;28;20458;-45
2021/08/30 12:51:06;;;;;;;7.80;7.10;;;22.40;69.80;;;;;;5032835;28;20435;-50